Time;durP1;ratioP1;P1;durP2;ratioP2;P2;SDS_P1;SDS_P2;PMS_P1;PMS_P2;Temp;Humidity;BMP_temperature;BMP_pressure;BME280_temperature;BME280_humidity;BME280_pressure;Samples;Min_cycle;Max_cycle;Signal;HPM_P1;HPM_P2
2022/04/30 07:24:51;;;;;;;17.77;12.90;;;;;;;12.23;73.20;100447.47;1085916;47;20069;-79
2022/04/30 07:25:52;;;;;;;17.30;12.38;;;;;;;12.17;72.90;100446.22;1085481;46;20069;-77
2022/04/30 07:26:57;;;;;;;18.02;12.90;;;;;;;12.22;73.18;100449.28;1085667;54;20077;-78
2022/04/30 07:27:58;;;;;;;18.98;13.27;;;;;;;12.19;73.53;100444.22;1086229;54;20049;-78
2022/04/30 07:29:03;;;;;;;18.42;14.70;;;;;;;12.07;73.90;100434.69;1085405;54;20038;-77
2022/04/30 07:30:06;;;;;;;17.95;13.50;;;;;;;12.21;73.58;100444.09;1085580;54;20034;-79
2022/04/30 07:31:10;;;;;;;14.95;11.55;;;;;;;12.43;72.79;100441.03;1086234;54;20038;-84
2022/04/30 07:32:15;;;;;;;18.00;13.70;;;;;;;12.24;73.44;100441.97;1088058;54;20056;-84
2022/04/30 07:33:16;;;;;;;18.15;12.63;;;;;;;12.48;72.56;100443.28;1088464;54;20030;-82
2022/04/30 07:34:22;;;;;;;14.95;11.82;;;;;;;12.59;72.10;100440.41;1088593;54;20045;-83
2022/04/30 07:35:24;;;;;;;18.20;12.93;;;;;;;12.46;72.66;100446.09;1088437;54;20041;-83
2022/04/30 07:36:52;;;;;;;19.83;14.52;;;;;;;12.36;72.91;100444.47;1087949;54;20030;-82
2022/04/30 07:37:56;;;;;;;16.52;12.63;;;;;;;12.51;72.67;100440.31;1092070;46;20050;-81
2022/04/30 07:39:00;;;;;;;17.85;13.32;;;;;;;12.49;72.78;100442.28;1088360;54;20010;-82
2022/04/30 07:40:08;;;;;;;19.23;13.98;;;;;;;12.33;73.32;100434.84;1090863;46;20048;-84
2022/04/30 07:41:12;;;;;;;17.58;13.38;;;;;;;12.20;74.09;100445.06;1089541;46;20098;-83
2022/04/30 07:42:14;;;;;;;16.60;13.05;;;;;;;12.38;73.73;100445.16;1088391;54;20045;-82
2022/04/30 07:43:18;;;;;;;17.50;11.95;;;;;;;12.62;72.67;100445.47;1088337;54;20186;-81
2022/04/30 07:44:26;;;;;;;14.40;11.20;;;;;;;12.78;72.45;100438.63;1088357;54;20018;-83
2022/04/30 07:45:28;;;;;;;14.95;11.65;;;;;;;12.87;71.86;100442.25;1088800;46;20014;-85
2022/04/30 07:46:32;;;;;;;14.93;11.18;;;;;;;13.01;71.73;100438.22;1089871;46;20031;-86
2022/04/30 07:47:34;;;;;;;13.68;10.77;;;;;;;12.99;71.45;100441.03;1089545;46;20054;-85
2022/04/30 07:48:39;;;;;;;14.50;11.82;;;;;;;12.98;71.62;100443.88;1088542;54;20014;-85
2022/04/30 07:50:57;;;;;;;18.30;13.55;;;;;;;12.72;72.52;100441.91;1088146;54;20018;-84
2022/04/30 07:52:00;;;;;;;19.48;13.80;;;;;;;12.57;72.88;100445.06;1088492;54;20093;-83
2022/04/30 07:55:12;;;;;;;15.75;12.23;;;;;;;12.51;72.77;100451.03;1088156;54;20014;-84
2022/04/30 07:56:15;;;;;;;19.02;12.25;;;;;;;12.76;71.91;100441.47;1088228;54;20019;-81
2022/04/30 07:57:20;;;;;;;14.85;11.85;;;;;;;12.84;71.50;100451.44;1091589;46;20007;-84
2022/04/30 08:08:03;;;;;;;15.15;12.75;;;;;;;12.49;73.04;100453.00;1088803;54;20014;-86
2022/04/30 08:16:18;;;;;;;14.20;11.70;;;;;;;12.84;71.23;100459.50;1087582;54;21330;-83
2022/04/30 08:17:20;;;;;;;13.23;11.40;;;;;;;12.96;71.11;100460.13;1088024;54;20604;-87
2022/04/30 08:18:26;;;;;;;14.55;11.18;;;;;;;13.03;70.79;100463.91;1088487;54;20030;-81
2022/04/30 08:19:30;;;;;;;19.73;12.63;;;;;;;12.92;70.84;100451.53;1088438;54;20037;-84
2022/04/30 08:44:05;;;;;;;17.55;13.27;;;;;;;12.33;72.14;100454.50;1087873;54;21536;-82
2022/04/30 08:50:56;;;;;;;13.63;11.75;;;;;;;12.97;70.63;100444.84;1098549;39;20222;-84
2022/04/30 09:01:23;;;;;;;14.20;11.77;;;;;;;13.19;67.88;100449.81;1089003;54;20070;-90
2022/04/30 09:02:25;;;;;;;15.43;11.43;;;;;;;13.12;68.47;100451.41;1161262;46;20011;-90
2022/04/30 10:22:30;;;;;;;12.50;10.00;;;;;;;12.39;72.38;100460.25;1067989;54;20056;31
2022/04/30 10:25:00;;;;;;;10.95;8.90;;;;;;;12.58;71.25;100460.16;1068519;54;20991;31
2022/04/30 10:30:23;;;;;;;11.52;7.88;;;;;;;12.71;70.41;100462.50;1088786;54;20018;-85
2022/04/30 10:59:28;;;;;;;8.35;7.00;;;;;;;12.19;72.75;100454.94;1070241;54;20031;31
2022/04/30 11:03:13;;;;;;;6.82;5.30;;;;;;;12.61;71.27;100456.38;1092788;39;20958;-81
2022/04/30 11:04:16;;;;;;;7.13;5.82;;;;;;;12.51;71.53;100452.88;1087452;54;20035;-84
2022/04/30 11:05:22;;;;;;;8.38;7.00;;;;;;;12.48;71.70;100456.69;1088420;54;20046;-85
2022/04/30 11:06:25;;;;;;;7.80;6.22;;;;;;;12.57;71.51;100453.09;1088395;54;20036;-84
2022/04/30 11:07:30;;;;;;;8.98;6.63;;;;;;;12.50;71.67;100451.19;1093954;39;20815;-84
2022/04/30 11:08:33;;;;;;;8.25;6.68;;;;;;;12.37;72.10;100449.69;1088396;54;20026;-84
2022/04/30 11:09:46;;;;;;;8.75;6.63;;;;;;;12.32;72.22;100449.28;1088347;54;20037;-84
2022/04/30 11:10:54;;;;;;;9.65;7.78;;;;;;;12.26;72.67;100457.88;1088434;54;20035;-84
2022/04/30 11:11:56;;;;;;;9.13;7.78;;;;;;;12.23;72.79;100456.34;1088439;54;20034;-85
2022/04/30 11:13:05;;;;;;;7.82;6.40;;;;;;;12.36;72.62;100455.19;1088417;54;20025;-84
2022/04/30 11:14:08;;;;;;;8.90;6.93;;;;;;;12.51;71.74;100453.72;1089814;39;20578;-84
2022/04/30 11:15:18;;;;;;;8.70;7.00;;;;;;;12.42;71.84;100454.59;1088409;54;20038;-84
2022/04/30 11:16:19;;;;;;;8.05;6.28;;;;;;;12.53;71.54;100457.09;1088409;54;20055;-83
2022/04/30 11:17:24;;;;;;;8.90;7.25;;;;;;;12.30;72.28;100456.63;1088025;54;20037;-84
2022/04/30 11:18:26;;;;;;;9.50;7.50;;;;;;;12.35;72.13;100464.22;1088293;54;20071;-83
2022/04/30 11:19:32;;;;;;;8.65;7.25;;;;;;;12.35;71.99;100456.19;1088464;54;20034;-83
2022/04/30 11:20:36;;;;;;;9.43;7.55;;;;;;;12.26;72.28;100460.56;1088430;54;20042;-84
2022/04/30 11:21:42;;;;;;;10.23;7.82;;;;;;;12.12;73.34;100460.06;1088116;54;20030;-85
2022/04/30 11:26:02;;;;;;;7.93;6.70;;;;;;;12.24;73.47;100459.88;1088227;54;20045;-84
2022/04/30 11:27:09;;;;;;;8.13;6.38;;;;;;;12.38;72.64;100454.03;1088163;54;20046;-83
2022/04/30 11:31:40;;;;;;;8.25;6.85;;;;;;;11.96;73.89;100449.91;1084526;54;21664;31
2022/04/30 11:32:48;;;;;;;8.88;6.55;;;;;;;11.93;73.51;100450.19;1087969;54;20078;-85
2022/04/30 11:34:56;;;;;;;7.85;5.97;;;;;;;11.89;74.25;100454.16;1087933;54;21274;-83
2022/04/30 11:35:58;;;;;;;8.40;6.60;;;;;;;12.05;73.55;100448.19;1091767;46;20046;-86
2022/04/30 11:37:03;;;;;;;7.10;5.88;;;;;;;12.27;72.91;100444.34;1088537;54;20030;-87
2022/04/30 11:38:12;;;;;;;8.52;5.88;;;;;;;12.04;73.66;100453.72;1088561;54;20025;-85
2022/04/30 11:41:42;;;;;;;8.25;6.40;;;;;;;11.74;74.58;100455.56;1088048;54;20030;-84
2022/04/30 11:42:46;;;;;;;7.85;6.13;;;;;;;11.90;73.97;100455.84;1087987;54;20023;-85
2022/04/30 11:44:59;;;;;;;6.90;5.40;;;;;;;12.16;72.97;100450.72;1088560;54;20018;-87
2022/04/30 11:46:01;;;;;;;6.03;4.55;;;;;;;12.31;72.27;100445.75;1088542;54;20039;-87
2022/04/30 11:47:09;;;;;;;7.22;5.53;;;;;;;12.31;72.59;100453.78;1088538;54;20030;-84
2022/04/30 11:48:11;;;;;;;6.20;4.95;;;;;;;12.47;72.07;100460.34;1088564;54;20101;-84
2022/04/30 11:49:17;;;;;;;8.77;5.47;;;;;;;12.42;71.97;100455.44;1088455;54;20030;-83
2022/04/30 11:50:20;;;;;;;8.07;5.78;;;;;;;12.20;72.72;100453.13;1088195;54;20038;-83
2022/04/30 11:52:27;;;;;;;7.28;5.15;;;;;;;12.45;72.07;100449.78;1088066;54;20277;-84
2022/04/30 11:53:30;;;;;;;6.95;5.57;;;;;;;12.43;72.44;100448.25;1088375;54;20034;-84
2022/04/30 11:55:40;;;;;;;7.85;6.15;;;;;;;12.20;73.60;100450.44;1087690;54;21146;-83
2022/04/30 11:57:47;;;;;;;7.85;6.03;;;;;;;12.33;72.87;100445.59;1087554;54;20049;-86
2022/04/30 11:58:50;;;;;;;8.30;6.03;;;;;;;12.15;73.29;100448.19;1089305;46;20057;-83
2022/04/30 11:59:58;;;;;;;6.90;5.50;;;;;;;12.24;73.27;100444.66;1088119;54;20026;-84
2022/04/30 12:00:59;;;;;;;7.45;5.40;;;;;;;12.37;72.82;100447.00;1088257;54;20026;-84
2022/04/30 12:04:19;;;;;;;6.70;4.75;;;;;;;12.79;71.17;100438.50;1069529;54;21211;31
2022/04/30 12:09:35;;;;;;;7.00;5.50;;;;;;;12.66;71.89;100437.16;1069549;54;20045;31
2022/04/30 12:26:05;;;;;;;7.45;5.65;;;;;;;12.28;72.17;100431.78;1069093;54;20041;31
2022/04/30 12:30:38;;;;;;;7.30;6.10;;;;;;;12.18;72.81;100426.47;1071931;54;20961;31
2022/04/30 12:31:47;;;;;;;7.10;5.30;;;;;;;12.50;72.00;100421.69;1075786;54;19946;31
2022/04/30 12:32:56;;;;;;;6.70;5.90;;;;;;;12.26;72.40;100417.69;1075909;54;20062;31
2022/04/30 12:36:52;;;;;;;6.57;5.00;;;;;;;12.35;72.16;100421.31;1087722;54;20021;-83
2022/04/30 12:40:13;;;;;;;6.93;5.43;;;;;;;12.14;73.03;100425.06;1068687;54;20041;31
2022/04/30 12:41:18;;;;;;;7.95;4.97;;;;;;;12.23;72.81;100418.81;1068778;54;20034;31
2022/04/30 12:44:38;;;;;;;6.35;5.35;;;;;;;12.26;73.03;100417.69;1068164;54;20038;31
2022/04/30 12:45:43;;;;;;;6.07;4.97;;;;;;;12.30;72.72;100419.91;1068568;54;20957;31
2022/04/30 12:49:00;;;;;;;7.30;6.13;;;;;;;11.92;73.94;100416.34;1069347;54;20932;31
2022/04/30 19:35:44;;;;;;;14.77;12.45;;;;;;;10.90;75.55;100447.06;1091370;39;20562;-80
2022/04/30 19:36:49;;;;;;;14.82;12.70;;;;;;;10.90;75.66;100441.69;1095878;39;20518;-82
2022/04/30 19:37:55;;;;;;;16.63;13.02;;;;;;;10.92;75.74;100437.91;1088785;54;20038;-83
2022/04/30 19:38:57;;;;;;;17.02;14.60;;;;;;;10.85;76.00;100444.78;1088655;54;20026;-82
2022/04/30 19:40:02;;;;;;;14.80;13.00;;;;;;;10.97;75.83;100444.69;1088670;54;20034;-82
2022/04/30 19:41:04;;;;;;;14.10;12.05;;;;;;;11.02;75.23;100440.59;1088654;54;20022;-82
2022/04/30 19:42:15;;;;;;;22.02;16.05;;;;;;;10.79;76.17;100439.13;1088715;54;20026;-83
2022/04/30 19:43:25;;;;;;;19.88;16.75;;;;;;;10.64;77.09;100444.88;1088615;54;20033;-81
2022/04/30 19:44:30;;;;;;;23.75;18.88;;;;;;;10.56;77.35;100439.34;1094844;46;20030;-83
2022/04/30 19:45:35;;;;;;;25.92;20.15;;;;;;;10.43;78.05;100451.13;1088540;54;20061;-81
2022/04/30 19:46:41;;;;;;;21.05;18.45;;;;;;;10.46;78.34;100444.66;1088345;54;20031;-81
2022/04/30 19:47:47;;;;;;;23.02;18.98;;;;;;;10.41;78.35;100449.56;1088569;54;20025;-82
2022/04/30 19:48:51;;;;;;;20.10;16.90;;;;;;;10.52;78.18;100461.97;1088585;54;20038;-82
2022/04/30 19:50:00;;;;;;;20.13;16.50;;;;;;;10.49;78.32;100452.41;1094197;39;20665;-81
2022/04/30 19:51:09;;;;;;;20.23;17.98;;;;;;;10.43;78.42;100456.47;1088647;54;20045;-81
2022/04/30 19:52:13;;;;;;;19.08;17.02;;;;;;;10.54;78.13;100454.69;1088265;54;20031;-81
2022/04/30 19:53:19;;;;;;;19.73;17.63;;;;;;;10.45;78.66;100454.50;1088549;54;20030;-81
2022/04/30 19:54:21;;;;;;;21.60;18.50;;;;;;;10.33;78.94;100455.53;1088539;54;20098;-81
2022/04/30 19:55:30;;;;;;;21.55;18.52;;;;;;;10.28;79.37;100452.44;1088589;54;20041;-81
2022/04/30 19:56:32;;;;;;;23.48;20.10;;;;;;;10.23;79.95;100455.50;1088631;54;20026;-80
2022/04/30 19:57:40;;;;;;;22.00;19.10;;;;;;;10.24;80.00;100451.84;1088643;54;20057;-81
2022/04/30 19:58:45;;;;;;;23.02;18.52;;;;;;;10.37;79.67;100461.47;1088618;54;20014;-82
2022/04/30 19:59:50;;;;;;;21.83;19.52;;;;;;;10.27;79.72;100453.41;1088411;54;20018;-80
2022/04/30 20:00:55;;;;;;;23.05;19.17;;;;;;;10.34;79.71;100457.22;1088560;54;20086;-81
2022/04/30 20:02:01;;;;;;;22.27;19.63;;;;;;;10.40;79.59;100455.88;1088576;54;20015;-81
2022/04/30 20:03:09;;;;;;;22.42;19.55;;;;;;;10.39;79.44;100455.03;1088486;54;20054;-82
2022/04/30 20:04:14;;;;;;;27.55;20.45;;;;;;;10.34;79.48;100454.56;1088492;54;20030;-82
2022/04/30 20:05:16;;;;;;;20.40;18.27;;;;;;;10.47;79.11;100448.19;1088562;54;20026;-83
2022/04/30 20:06:24;;;;;;;21.88;19.20;;;;;;;10.44;79.19;100449.28;1111723;39;20672;-82
2022/04/30 20:07:29;;;;;;;25.15;20.80;;;;;;;10.38;79.53;100453.34;1088671;54;20040;-83
2022/04/30 20:08:34;;;;;;;22.45;20.05;;;;;;;10.34;79.56;100451.88;1088578;54;20026;-82
2022/04/30 20:29:13;;;;;;;19.60;16.88;;;;;;;10.36;79.32;100443.72;1088404;54;20047;-83
2022/04/30 20:36:39;;;;;;;18.55;16.38;;;;;;;10.36;79.36;100444.59;1088210;54;20034;-81
2022/04/30 20:37:09;;;;;;;24.17;20.20;;;;;;;10.21;80.25;100444.09;1087859;54;20049;-79
2022/04/30 20:38:16;;;;;;;21.90;19.10;;;;;;;10.48;79.25;100448.03;1088317;54;20031;-78
2022/04/30 20:39:18;;;;;;;20.38;17.48;;;;;;;10.50;79.16;100445.22;1088115;54;20046;-81
2022/04/30 20:40:22;;;;;;;23.45;18.40;;;;;;;10.42;79.09;100453.94;1087836;54;20103;-81
2022/04/30 20:41:24;;;;;;;20.92;17.70;;;;;;;10.37;79.52;100457.00;1087449;54;20034;-80
2022/04/30 20:42:39;;;;;;;23.02;20.05;;;;;;;10.25;80.02;100455.34;1088533;54;20026;-81
2022/04/30 20:43:42;;;;;;;23.38;19.48;;;;;;;10.33;79.66;100452.03;1088565;54;20022;-80
2022/04/30 20:44:46;;;;;;;21.77;17.70;;;;;;;10.47;79.31;100451.69;1089083;46;20061;-81
2022/04/30 20:45:48;;;;;;;22.92;18.67;;;;;;;10.41;79.13;100447.72;1088487;54;20034;-80
2022/04/30 20:46:54;;;;;;;21.38;18.13;;;;;;;10.40;79.19;100446.03;1088369;54;20026;-80
2022/04/30 20:47:58;;;;;;;23.27;18.25;;;;;;;10.43;79.32;100459.13;1088377;54;20045;-79
2022/04/30 20:49:00;;;;;;;22.15;18.27;;;;;;;10.35;79.49;100442.91;1088450;54;20026;-80
2022/04/30 20:50:04;;;;;;;20.83;18.63;;;;;;;10.39;79.47;100447.00;1088389;54;20027;-81
2022/04/30 20:51:07;;;;;;;24.63;18.73;;;;;;;10.32;79.37;100442.31;1088302;54;20050;-79
2022/04/30 20:52:13;;;;;;;20.02;17.73;;;;;;;10.42;79.13;100444.06;1088194;54;20105;-79
2022/04/30 20:53:18;;;;;;;22.35;18.88;;;;;;;10.40;79.07;100450.53;1088326;46;20111;-81
2022/04/30 20:54:22;;;;;;;19.88;17.67;;;;;;;10.54;78.63;100433.28;1087945;54;20018;-79
2022/04/30 20:55:24;;;;;;;21.33;17.50;;;;;;;10.64;78.08;100439.53;1087854;54;20042;-81
2022/04/30 20:56:29;;;;;;;22.38;19.23;;;;;;;10.60;78.01;100440.75;1087954;54;20018;-79
2022/04/30 20:57:33;;;;;;;24.40;19.27;;;;;;;10.53;78.38;100440.44;1088296;54;20042;-78
2022/04/30 20:58:35;;;;;;;26.60;21.15;;;;;;;10.42;79.03;100444.06;1088299;54;20062;-77
2022/04/30 20:59:43;;;;;;;26.60;21.35;;;;;;;10.42;79.04;100444.06;1093140;46;20111;-78
2022/04/30 21:00:45;;;;;;;22.70;19.90;;;;;;;10.51;78.77;100442.44;1088334;54;20697;-78
2022/04/30 21:01:50;;;;;;;22.75;19.70;;;;;;;10.53;78.35;100444.97;1088161;54;20034;-79
2022/04/30 21:02:54;;;;;;;22.73;20.25;;;;;;;10.43;78.52;100444.94;1090635;46;20057;-78
2022/04/30 21:03:58;;;;;;;23.45;20.17;;;;;;;10.39;79.07;100449.69;1089724;39;20527;-80
2022/04/30 21:05:08;;;;;;;22.40;19.35;;;;;;;10.43;78.97;100452.97;1088201;54;20014;-79
2022/04/30 21:06:10;;;;;;;20.92;18.67;;;;;;;10.37;78.89;100449.00;1088342;54;20011;-80
2022/04/30 21:07:15;;;;;;;22.98;17.98;;;;;;;10.35;79.16;100442.03;1088686;46;20019;-80
2022/04/30 21:08:20;;;;;;;22.33;19.92;;;;;;;10.34;79.27;100440.38;1088260;54;20034;-81
2022/04/30 21:09:24;;;;;;;23.42;19.58;;;;;;;10.30;79.57;100440.63;1087804;54;20038;-80
2022/04/30 21:10:26;;;;;;;21.45;18.40;;;;;;;10.29;79.45;100443.44;1088048;54;20018;-79
2022/04/30 21:11:30;;;;;;;22.70;19.92;;;;;;;10.26;79.66;100443.69;1088129;54;20934;-82
2022/04/30 21:12:34;;;;;;;24.15;19.60;;;;;;;10.33;79.46;100442.19;1089860;46;20054;-78
2022/04/30 21:13:36;;;;;;;23.27;20.00;;;;;;;10.32;79.48;100439.66;1088194;54;20053;-79
2022/04/30 21:14:40;;;;;;;22.23;19.15;;;;;;;10.31;79.62;100438.78;1088217;54;20034;-79
2022/04/30 21:15:42;;;;;;;22.77;18.58;;;;;;;10.37;79.38;100440.97;1088236;54;20082;-80
2022/04/30 21:16:46;;;;;;;21.98;19.27;;;;;;;10.35;79.43;100442.91;1091201;46;20034;-79
2022/04/30 21:17:51;;;;;;;22.10;18.10;;;;;;;10.38;79.05;100440.00;1089759;46;20049;-79
2022/04/30 21:18:53;;;;;;;24.40;20.58;;;;;;;10.29;79.72;100446.94;1088306;47;20314;-80
2022/04/30 21:19:57;;;;;;;26.73;20.98;;;;;;;10.33;79.38;100439.50;1088266;54;20019;-79
2022/04/30 21:20:59;;;;;;;23.63;19.38;;;;;;;10.32;79.54;100440.47;1088264;54;20023;-79
2022/04/30 21:22:03;;;;;;;20.02;17.63;;;;;;;10.51;78.77;100436.22;1088203;54;20074;-78
2022/04/30 21:23:06;;;;;;;22.60;17.10;;;;;;;10.64;78.32;100431.50;1088260;54;20034;-78
2022/04/30 21:24:13;;;;;;;21.05;17.50;;;;;;;10.72;77.90;100436.19;1088192;54;20090;-79
2022/04/30 21:25:15;;;;;;;17.73;15.32;;;;;;;10.79;77.59;100436.44;1088171;54;20041;-78
2022/04/30 21:26:20;;;;;;;24.77;20.42;;;;;;;10.50;78.39;100439.88;1088081;54;20030;-80
2022/04/30 21:27:22;;;;;;;20.98;18.17;;;;;;;10.56;78.42;100431.34;1088268;54;20035;-80
2022/04/30 21:28:27;;;;;;;23.63;18.48;;;;;;;10.47;78.65;100429.47;1088356;54;20120;-79
2022/04/30 21:29:32;;;;;;;23.25;19.33;;;;;;;10.41;78.75;100442.38;1089651;46;20014;-79
2022/04/30 21:30:36;;;;;;;23.30;18.90;;;;;;;10.40;78.86;100440.69;1088279;54;20033;-79
2022/04/30 21:31:40;;;;;;;22.00;19.35;;;;;;;10.38;79.05;100426.63;1089159;39;20155;-79
2022/04/30 21:32:42;;;;;;;20.70;17.92;;;;;;;10.45;78.69;100433.13;1088249;54;20037;-79
2022/04/30 21:33:47;;;;;;;20.65;16.90;;;;;;;10.54;78.45;100434.13;1088677;39;20543;-79
2022/04/30 21:34:49;;;;;;;19.70;17.35;;;;;;;10.49;78.49;100427.50;1102479;46;20057;-78
2022/04/30 21:35:53;;;;;;;19.73;17.70;;;;;;;10.60;77.98;100432.75;1088385;54;20033;-78
2022/04/30 21:36:55;;;;;;;19.25;15.98;;;;;;;10.61;77.91;100423.75;1090727;46;20015;-80
2022/04/30 21:37:59;;;;;;;19.27;17.23;;;;;;;10.67;77.53;100428.56;1088414;54;20307;-80
2022/04/30 21:39:01;;;;;;;19.95;17.70;;;;;;;10.56;77.61;100418.81;1092469;39;20692;-79
2022/04/30 21:40:11;;;;;;;23.05;19.67;;;;;;;10.51;77.75;100420.19;1095461;46;20026;-78
2022/04/30 21:42:29;;;;;;;19.35;16.30;;;;;;;10.55;77.61;100422.44;1088295;54;20049;-80
2022/04/30 21:43:31;;;;;;;21.20;18.27;;;;;;;10.58;77.65;100421.34;1088135;54;20030;-78
2022/04/30 21:44:39;;;;;;;21.92;17.85;;;;;;;10.54;77.55;100418.09;1088176;54;20030;-79
2022/04/30 21:45:40;;;;;;;21.67;16.85;;;;;;;10.58;77.67;100427.53;1088259;54;20058;-79
2022/04/30 21:46:44;;;;;;;18.20;15.82;;;;;;;10.62;77.41;100417.41;1088259;54;20042;-78
2022/04/30 21:47:49;;;;;;;19.02;15.85;;;;;;;10.64;77.53;100415.47;1088293;54;20038;-79
2022/04/30 21:48:50;;;;;;;20.42;17.38;;;;;;;10.63;77.50;100418.28;1088625;39;20664;-78
2022/04/30 21:49:55;;;;;;;20.40;16.67;;;;;;;10.66;77.41;100413.50;1088078;54;20713;-78
2022/04/30 21:50:56;;;;;;;20.17;15.82;;;;;;;10.76;76.94;100419.72;1088188;54;20030;-80
2022/04/30 21:52:01;;;;;;;20.30;17.02;;;;;;;10.68;76.99;100424.06;1093238;39;20366;-80
2022/04/30 21:53:02;;;;;;;23.08;19.20;;;;;;;10.50;77.50;100426.50;1088267;54;20040;-80
2022/04/30 21:54:07;;;;;;;19.02;16.65;;;;;;;10.61;77.38;100419.25;1088164;54;20026;-79
2022/04/30 22:00:25;;;;;;;20.20;17.90;;;;;;;10.52;77.62;100427.22;1088050;54;20030;-79
2022/04/30 22:01:29;;;;;;;20.13;17.58;;;;;;;10.55;77.72;100433.16;1091085;46;20034;-79
2022/04/30 22:02:33;;;;;;;22.00;19.40;;;;;;;10.50;78.09;100431.84;1088617;39;20705;-80
2022/04/30 22:03:35;;;;;;;21.33;18.83;;;;;;;10.53;77.86;100421.72;1088170;54;20038;-78
2022/04/30 22:04:39;;;;;;;21.33;18.40;;;;;;;10.52;78.12;100432.56;1088121;54;20784;-80
2022/04/30 22:05:42;;;;;;;20.92;18.70;;;;;;;10.55;77.90;100426.97;1088104;54;20034;-80
2022/04/30 22:06:47;;;;;;;23.60;19.65;;;;;;;10.43;78.13;100429.72;1088097;54;20061;-80
2022/04/30 22:07:51;;;;;;;23.92;19.45;;;;;;;10.40;78.28;100427.31;1088195;54;20058;-79
2022/04/30 22:08:53;;;;;;;23.55;19.98;;;;;;;10.42;78.25;100433.38;1088191;54;20038;-79
2022/04/30 22:09:57;;;;;;;22.48;19.25;;;;;;;10.45;78.27;100430.44;1088194;54;20034;-79
2022/04/30 22:11:02;;;;;;;20.88;17.73;;;;;;;10.51;78.30;100433.56;1089973;46;20062;-79
2022/04/30 22:12:09;;;;;;;24.95;20.08;;;;;;;10.44;78.52;100423.41;1088408;47;20041;-79
2022/04/30 22:13:10;;;;;;;22.92;18.80;;;;;;;10.53;77.96;100427.09;1088186;54;20027;-79
2022/04/30 22:14:15;;;;;;;21.20;17.13;;;;;;;10.64;77.75;100425.28;1088095;54;20857;-79
2022/04/30 22:15:19;;;;;;;20.10;17.15;;;;;;;10.65;77.73;100422.50;1087938;54;20061;-81
2022/04/30 22:16:21;;;;;;;23.98;17.15;;;;;;;10.70;77.47;100425.59;1087836;47;20026;-79
2022/04/30 22:17:26;;;;;;;18.70;16.70;;;;;;;10.78;76.95;100427.59;1088227;54;20061;-80
2022/04/30 22:18:28;;;;;;;20.75;18.55;;;;;;;10.66;77.40;100428.69;1088150;54;20094;-79
2022/04/30 22:19:33;;;;;;;19.70;17.60;;;;;;;10.71;77.44;100421.13;1088203;54;20038;-81
2022/04/30 22:20:35;;;;;;;19.77;17.20;;;;;;;10.74;77.04;100424.34;1088189;54;20082;-80
2022/04/30 22:21:40;;;;;;;22.05;18.02;;;;;;;10.77;77.21;100432.09;1088132;54;20030;-79
2022/04/30 22:22:44;;;;;;;18.20;16.15;;;;;;;10.93;76.38;100428.06;1088605;47;20065;-79
2022/04/30 22:23:46;;;;;;;19.23;15.13;;;;;;;10.99;76.41;100432.84;1088273;54;20030;-79
2022/04/30 22:24:50;;;;;;;17.48;14.88;;;;;;;11.08;76.17;100424.00;1089162;46;20034;-79
2022/04/30 22:25:52;;;;;;;16.20;13.77;;;;;;;11.17;75.69;100421.47;1088489;54;20053;-79
2022/04/30 22:26:59;;;;;;;15.50;13.77;;;;;;;11.18;75.42;100425.84;1086894;54;20053;-80
2022/04/30 22:28:01;;;;;;;20.38;18.23;;;;;;;10.84;76.46;100431.56;1087242;54;20062;-79
2022/04/30 22:29:06;;;;;;;21.70;18.52;;;;;;;10.67;77.12;100430.38;1087403;54;20038;-79
2022/04/30 22:30:08;;;;;;;24.75;20.30;;;;;;;10.59;77.61;100426.56;1087364;54;20064;-80
2022/04/30 22:31:14;;;;;;;21.65;19.35;;;;;;;10.57;77.54;100423.16;1087444;54;20034;-80
2022/04/30 22:32:15;;;;;;;21.77;18.70;;;;;;;10.61;77.63;100423.75;1086350;54;20572;-79
2022/04/30 22:33:20;;;;;;;22.45;19.38;;;;;;;10.61;77.55;100421.94;1087410;54;20058;-79
2022/04/30 22:34:24;;;;;;;24.52;20.00;;;;;;;10.69;77.48;100428.41;1088048;54;20026;-80
2022/04/30 22:35:25;;;;;;;21.10;18.40;;;;;;;10.81;77.14;100423.81;1087746;54;20037;-80
2022/04/30 22:36:30;;;;;;;21.48;19.08;;;;;;;10.73;77.11;100430.69;1087331;54;20045;-78
2022/04/30 22:37:34;;;;;;;21.45;18.15;;;;;;;10.79;76.91;100425.75;1088009;54;20038;-79
2022/04/30 22:38:35;;;;;;;20.45;17.02;;;;;;;10.86;76.73;100426.94;1087924;54;20034;-80
2022/04/30 22:43:32;;;;;;;25.73;20.67;;;;;;;10.50;77.83;100429.19;1088295;54;20030;-80
2022/04/30 22:44:34;;;;;;;25.10;20.90;;;;;;;10.40;78.62;100434.50;1088181;54;20062;-78
2022/04/30 22:45:38;;;;;;;24.88;21.00;;;;;;;10.43;78.67;100429.72;1088077;54;20073;-79
2022/04/30 22:46:43;;;;;;;27.73;22.17;;;;;;;10.32;78.86;100431.63;1088041;54;20034;-79
2022/04/30 22:47:48;;;;;;;25.02;21.88;;;;;;;10.22;79.62;100428.91;1087978;54;20046;-79
2022/04/30 22:48:50;;;;;;;27.52;22.10;;;;;;;10.24;79.56;100434.97;1087538;54;20038;-79
2022/04/30 22:49:54;;;;;;;23.10;19.27;;;;;;;10.41;78.87;100431.69;1087353;54;20035;-79
2022/04/30 22:50:56;;;;;;;24.55;20.83;;;;;;;10.42;78.78;100432.56;1087889;54;20038;-79
2022/04/30 22:52:00;;;;;;;21.58;18.67;;;;;;;10.50;78.59;100423.84;1087767;54;20146;-79
2022/04/30 22:53:02;;;;;;;23.27;19.42;;;;;;;10.49;78.49;100432.84;1087742;54;20042;-79
2022/04/30 22:54:07;;;;;;;24.73;22.02;;;;;;;10.43;78.92;100426.22;1087530;54;20038;-79
2022/04/30 22:55:10;;;;;;;22.77;20.27;;;;;;;10.54;78.46;100430.63;1086954;54;20068;-79
2022/04/30 22:56:14;;;;;;;21.50;18.42;;;;;;;10.66;77.96;100423.34;1087067;54;20030;-79
2022/04/30 22:57:18;;;;;;;20.80;17.15;;;;;;;10.74;77.55;100424.34;1087030;54;20034;-79
2022/04/30 22:58:24;;;;;;;18.65;16.55;;;;;;;10.83;77.22;100420.00;1087515;54;20039;-79
2022/04/30 22:59:26;;;;;;;17.48;15.57;;;;;;;10.77;77.17;100424.06;1087577;54;20035;-79
2022/04/30 23:00:30;;;;;;;22.30;18.85;;;;;;;10.67;77.69;100431.25;1087517;54;20034;-79
2022/04/30 23:01:32;;;;;;;22.92;18.52;;;;;;;10.68;77.83;100421.38;1087330;54;20047;-79
2022/04/30 23:02:37;;;;;;;21.55;18.45;;;;;;;10.73;77.59;100420.00;1087526;54;20038;-80
2022/04/30 23:03:39;;;;;;;26.90;20.83;;;;;;;10.59;77.68;100428.38;1090163;39;20596;-78
2022/04/30 23:04:43;;;;;;;22.40;19.50;;;;;;;10.58;78.17;100421.34;1087034;54;20039;-79
2022/04/30 23:05:45;;;;;;;25.90;21.50;;;;;;;10.52;78.40;100419.22;1086865;54;20053;-79
2022/04/30 23:06:49;;;;;;;25.88;21.33;;;;;;;10.54;78.33;100428.78;1087221;54;20038;-79
2022/04/30 23:07:51;;;;;;;22.90;19.77;;;;;;;10.59;78.36;100426.56;1090043;39;20476;-80
2022/04/30 23:08:57;;;;;;;25.02;21.75;;;;;;;10.51;78.65;100420.19;1087618;54;20045;-79
2022/04/30 23:09:59;;;;;;;26.85;21.58;;;;;;;10.47;78.98;100418.78;1088399;39;20520;-79
2022/04/30 23:11:03;;;;;;;25.77;22.88;;;;;;;10.30;79.74;100415.72;1087985;39;20411;-79
2022/04/30 23:12:07;;;;;;;27.25;22.88;;;;;;;10.29;79.95;100422.06;1087515;54;20038;-79
2022/04/30 23:14:30;;;;;;;26.05;22.00;;;;;;;10.26;79.95;100406.28;1087408;54;20582;-79
2022/04/30 23:15:32;;;;;;;26.02;22.27;;;;;;;10.28;80.01;100412.34;1087461;54;20038;-79
2022/04/30 23:16:36;;;;;;;27.15;22.90;;;;;;;10.29;79.76;100411.38;1087505;54;20034;-80
2022/04/30 23:17:37;;;;;;;29.48;22.48;;;;;;;10.36;79.70;100406.31;1087449;54;20038;-78
2022/04/30 23:18:42;;;;;;;26.27;21.92;;;;;;;10.33;79.70;100418.13;1087339;54;20066;-79
2022/04/30 23:19:43;;;;;;;21.70;18.92;;;;;;;10.51;79.19;100413.03;1087277;54;20049;-79
2022/04/30 23:20:48;;;;;;;22.08;19.25;;;;;;;10.65;78.53;100408.28;1087281;54;20101;-78
2022/04/30 23:21:49;;;;;;;23.50;20.83;;;;;;;10.45;78.78;100410.88;1086764;54;20065;-77
2022/04/30 23:22:53;;;;;;;23.38;20.05;;;;;;;10.32;79.80;100418.28;1087012;54;20045;-77
2022/04/30 23:23:55;;;;;;;25.33;21.63;;;;;;;10.34;79.66;100418.97;1087433;54;20046;-78